sensor_id;sensor_type;location;lat;lon;timestamp;pressure;altitude;pressure_sealevel;temperature;humidity
59939;BME280;45801;51.810;19.444;2023-02-23T00:01:52;99406.70;;;2.23;56.63
59939;BME280;45801;51.810;19.444;2023-02-23T00:04:19;99406.46;;;2.22;56.42
59939;BME280;45801;51.810;19.444;2023-02-23T00:06:46;99405.05;;;2.21;56.50
59939;BME280;45801;51.810;19.444;2023-02-23T00:09:13;99404.27;;;2.20;56.37
59939;BME280;45801;51.810;19.444;2023-02-23T00:11:55;99398.33;;;2.20;56.43
59939;BME280;45801;51.810;19.444;2023-02-23T00:14:27;99399.59;;;2.20;56.27
59939;BME280;45801;51.810;19.444;2023-02-23T00:16:54;99399.53;;;2.19;56.64
59939;BME280;45801;51.810;19.444;2023-02-23T00:19:23;99396.59;;;2.19;56.68
59939;BME280;45801;51.810;19.444;2023-02-23T00:21:50;99395.87;;;2.19;56.76
59939;BME280;45801;51.810;19.444;2023-02-23T00:24:18;99398.73;;;2.20;56.23
59939;BME280;45801;51.810;19.444;2023-02-23T00:26:46;99398.77;;;2.21;56.37
59939;BME280;45801;51.810;19.444;2023-02-23T00:29:19;99401.23;;;2.19;57.04
59939;BME280;45801;51.810;19.444;2023-02-23T00:31:46;99402.02;;;2.18;56.98
59939;BME280;45801;51.810;19.444;2023-02-23T00:34:15;99398.42;;;2.17;56.70
59939;BME280;45801;51.810;19.444;2023-02-23T00:36:49;99400.74;;;2.15;56.84
59939;BME280;45801;51.810;19.444;2023-02-23T00:39:16;99399.23;;;2.14;56.85
59939;BME280;45801;51.810;19.444;2023-02-23T00:41:52;99396.12;;;2.14;56.92
59939;BME280;45801;51.810;19.444;2023-02-23T00:44:22;99394.86;;;2.15;56.47
59939;BME280;45801;51.810;19.444;2023-02-23T00:46:49;99396.94;;;2.13;56.87
59939;BME280;45801;51.810;19.444;2023-02-23T00:49:18;99396.83;;;2.12;57.18
59939;BME280;45801;51.810;19.444;2023-02-23T00:51:46;99394.23;;;2.11;57.18
59939;BME280;45801;51.810;19.444;2023-02-23T00:54:15;99392.98;;;2.08;57.07
59939;BME280;45801;51.810;19.444;2023-02-23T00:56:42;99393.08;;;2.05;57.28
59939;BME280;45801;51.810;19.444;2023-02-23T00:59:09;99391.19;;;2.04;57.15
59939;BME280;45801;51.810;19.444;2023-02-23T01:01:37;99389.74;;;2.03;57.43
59939;BME280;45801;51.810;19.444;2023-02-23T01:04:07;99389.46;;;2.03;57.46
59939;BME280;45801;51.810;19.444;2023-02-23T01:06:34;99391.95;;;2.02;57.00
59939;BME280;45801;51.810;19.444;2023-02-23T01:09:14;99388.28;;;1.97;57.06
59939;BME280;45801;51.810;19.444;2023-02-23T01:11:42;99385.98;;;1.94;57.11
59939;BME280;45801;51.810;19.444;2023-02-23T01:14:11;99378.94;;;1.92;57.27
59939;BME280;45801;51.810;19.444;2023-02-23T01:16:38;99380.06;;;1.92;57.39
59939;BME280;45801;51.810;19.444;2023-02-23T01:19:05;99373.76;;;1.88;57.23
59939;BME280;45801;51.810;19.444;2023-02-23T01:21:35;99379.73;;;1.85;57.53
59939;BME280;45801;51.810;19.444;2023-02-23T01:24:02;99384.25;;;1.86;57.53
59939;BME280;45801;51.810;19.444;2023-02-23T01:26:31;99387.25;;;1.84;57.51
59939;BME280;45801;51.810;19.444;2023-02-23T01:29:04;99380.89;;;1.85;57.56
59939;BME280;45801;51.810;19.444;2023-02-23T01:31:34;99381.36;;;1.84;57.78
59939;BME280;45801;51.810;19.444;2023-02-23T01:34:03;99378.63;;;1.82;57.92
59939;BME280;45801;51.810;19.444;2023-02-23T01:36:38;99378.55;;;1.81;57.80
59939;BME280;45801;51.810;19.444;2023-02-23T01:39:09;99375.96;;;1.79;57.75
59939;BME280;45801;51.810;19.444;2023-02-23T01:41:37;99375.32;;;1.75;57.88
59939;BME280;45801;51.810;19.444;2023-02-23T01:46:37;99369.59;;;1.68;58.09
59939;BME280;45801;51.810;19.444;2023-02-23T01:49:07;99367.92;;;1.67;58.04
59939;BME280;45801;51.810;19.444;2023-02-23T01:51:59;99362.39;;;1.65;58.35
59939;BME280;45801;51.810;19.444;2023-02-23T01:54:32;99358.54;;;1.64;58.44
59939;BME280;45801;51.810;19.444;2023-02-23T01:57:03;99355.03;;;1.64;58.24
59939;BME280;45801;51.810;19.444;2023-02-23T01:59:43;99353.54;;;1.60;58.00
59939;BME280;45801;51.810;19.444;2023-02-23T02:02:11;99356.56;;;1.57;58.00
59939;BME280;45801;51.810;19.444;2023-02-23T02:04:40;99353.44;;;1.54;57.98
59939;BME280;45801;51.810;19.444;2023-02-23T02:07:29;99353.91;;;1.51;58.24
59939;BME280;45801;51.810;19.444;2023-02-23T02:09:57;99353.20;;;1.49;58.35
59939;BME280;45801;51.810;19.444;2023-02-23T02:12:38;99351.30;;;1.49;58.22
59939;BME280;45801;51.810;19.444;2023-02-23T02:15:06;99347.42;;;1.48;58.12
59939;BME280;45801;51.810;19.444;2023-02-23T02:18:17;99346.99;;;1.45;58.17
59939;BME280;45801;51.810;19.444;2023-02-23T02:26:40;99340.52;;;1.31;58.10
59939;BME280;45801;51.810;19.444;2023-02-23T02:32:37;99339.40;;;1.24;58.28
59939;BME280;45801;51.810;19.444;2023-02-23T02:35:45;99338.92;;;1.20;58.20
59939;BME280;45801;51.810;19.444;2023-02-23T02:38:47;99334.91;;;1.19;58.21
59939;BME280;45801;51.810;19.444;2023-02-23T02:41:41;99335.95;;;1.17;58.45
59939;BME280;45801;51.810;19.444;2023-02-23T02:47:07;99329.40;;;1.17;58.11
59939;BME280;45801;51.810;19.444;2023-02-23T02:49:40;99327.09;;;1.14;58.48
59939;BME280;45801;51.810;19.444;2023-02-23T02:52:20;99329.72;;;1.15;58.53
59939;BME280;45801;51.810;19.444;2023-02-23T02:55:05;99326.41;;;1.15;58.25
59939;BME280;45801;51.810;19.444;2023-02-23T02:57:35;99326.83;;;1.15;58.59
59939;BME280;45801;51.810;19.444;2023-02-23T03:00:03;99324.72;;;1.17;58.63
59939;BME280;45801;51.810;19.444;2023-02-23T03:02:48;99325.52;;;1.16;58.35
59939;BME280;45801;51.810;19.444;2023-02-23T03:08:44;99318.91;;;1.13;58.54
59939;BME280;45801;51.810;19.444;2023-02-23T03:11:39;99317.02;;;1.11;58.74
59939;BME280;45801;51.810;19.444;2023-02-23T03:14:32;99316.80;;;1.13;58.73
59939;BME280;45801;51.810;19.444;2023-02-23T03:17:42;99314.48;;;1.14;58.74
59939;BME280;45801;51.810;19.444;2023-02-23T03:23:50;99311.23;;;1.12;58.65
59939;BME280;45801;51.810;19.444;2023-02-23T03:26:49;99310.54;;;1.10;59.16
59939;BME280;45801;51.810;19.444;2023-02-23T03:29:46;99309.51;;;1.06;59.15
59939;BME280;45801;51.810;19.444;2023-02-23T03:32:40;99308.31;;;1.04;59.05
59939;BME280;45801;51.810;19.444;2023-02-23T03:35:49;99304.23;;;1.02;58.92
59939;BME280;45801;51.810;19.444;2023-02-23T03:39:11;99303.38;;;1.03;59.01
59939;BME280;45801;51.810;19.444;2023-02-23T03:41:53;99303.88;;;1.00;59.48
59939;BME280;45801;51.810;19.444;2023-02-23T03:44:42;99298.54;;;1.00;59.46
59939;BME280;45801;51.810;19.444;2023-02-23T03:47:33;99300.67;;;1.01;59.63
59939;BME280;45801;51.810;19.444;2023-02-23T03:50:52;99300.98;;;1.05;59.52
59939;BME280;45801;51.810;19.444;2023-02-23T03:53:43;99301.45;;;1.09;59.58
59939;BME280;45801;51.810;19.444;2023-02-23T03:56:33;99297.98;;;1.11;59.63
59939;BME280;45801;51.810;19.444;2023-02-23T03:59:23;99298.92;;;1.10;59.72
59939;BME280;45801;51.810;19.444;2023-02-23T04:02:11;99298.26;;;1.08;59.71
59939;BME280;45801;51.810;19.444;2023-02-23T04:05:01;99299.68;;;1.08;59.72
59939;BME280;45801;51.810;19.444;2023-02-23T04:07:50;99299.27;;;1.10;59.74
59939;BME280;45801;51.810;19.444;2023-02-23T04:10:45;99297.34;;;1.11;59.99
59939;BME280;45801;51.810;19.444;2023-02-23T04:13:36;99297.98;;;1.11;60.06
59939;BME280;45801;51.810;19.444;2023-02-23T04:16:08;99297.77;;;1.10;60.07
59939;BME280;45801;51.810;19.444;2023-02-23T04:18:37;99297.39;;;1.10;60.24
59939;BME280;45801;51.810;19.444;2023-02-23T04:21:05;99296.59;;;1.10;60.24
59939;BME280;45801;51.810;19.444;2023-02-23T04:23:33;99295.54;;;1.13;60.10
59939;BME280;45801;51.810;19.444;2023-02-23T04:26:00;99297.84;;;1.15;60.30
59939;BME280;45801;51.810;19.444;2023-02-23T04:28:27;99297.56;;;1.20;60.11
59939;BME280;45801;51.810;19.444;2023-02-23T04:30:54;99296.31;;;1.24;59.88
59939;BME280;45801;51.810;19.444;2023-02-23T04:33:22;99296.72;;;1.25;59.91
59939;BME280;45801;51.810;19.444;2023-02-23T04:35:52;99296.25;;;1.26;60.10
59939;BME280;45801;51.810;19.444;2023-02-23T04:38:20;99292.40;;;1.22;60.23
59939;BME280;45801;51.810;19.444;2023-02-23T04:40:48;99289.89;;;1.23;60.23
59939;BME280;45801;51.810;19.444;2023-02-23T04:43:15;99287.33;;;1.22;60.15
59939;BME280;45801;51.810;19.444;2023-02-23T04:45:42;99288.53;;;1.21;60.37
59939;BME280;45801;51.810;19.444;2023-02-23T04:48:09;99289.30;;;1.23;60.26
59939;BME280;45801;51.810;19.444;2023-02-23T04:50:36;99287.46;;;1.23;60.12
59939;BME280;45801;51.810;19.444;2023-02-23T04:53:03;99288.66;;;1.26;60.17
59939;BME280;45801;51.810;19.444;2023-02-23T04:55:29;99287.71;;;1.25;60.01
59939;BME280;45801;51.810;19.444;2023-02-23T04:57:59;99287.16;;;1.22;60.10
59939;BME280;45801;51.810;19.444;2023-02-23T05:00:26;99287.42;;;1.21;60.53
59939;BME280;45801;51.810;19.444;2023-02-23T05:02:55;99285.45;;;1.20;60.43
59939;BME280;45801;51.810;19.444;2023-02-23T05:05:22;99287.82;;;1.23;60.22
59939;BME280;45801;51.810;19.444;2023-02-23T05:07:48;99285.88;;;1.23;60.19
59939;BME280;45801;51.810;19.444;2023-02-23T05:10:15;99285.04;;;1.19;60.42
59939;BME280;45801;51.810;19.444;2023-02-23T05:12:41;99283.37;;;1.17;60.67
59939;BME280;45801;51.810;19.444;2023-02-23T05:15:08;99280.55;;;1.17;60.70
59939;BME280;45801;51.810;19.444;2023-02-23T05:17:37;99278.42;;;1.16;60.75
59939;BME280;45801;51.810;19.444;2023-02-23T05:20:08;99280.42;;;1.15;60.49
59939;BME280;45801;51.810;19.444;2023-02-23T05:22:36;99281.81;;;1.13;60.59
59939;BME280;45801;51.810;19.444;2023-02-23T05:25:04;99280.38;;;1.13;60.74
59939;BME280;45801;51.810;19.444;2023-02-23T05:27:31;99278.64;;;1.15;60.63
59939;BME280;45801;51.810;19.444;2023-02-23T05:29:58;99276.30;;;1.13;60.82
59939;BME280;45801;51.810;19.444;2023-02-23T05:32:24;99275.67;;;1.12;60.77
59939;BME280;45801;51.810;19.444;2023-02-23T05:34:51;99273.19;;;1.11;60.88
59939;BME280;45801;51.810;19.444;2023-02-23T05:37:17;99275.63;;;1.10;61.06
59939;BME280;45801;51.810;19.444;2023-02-23T05:39:45;99274.98;;;1.10;61.09
59939;BME280;45801;51.810;19.444;2023-02-23T05:42:12;99275.56;;;1.11;61.11
59939;BME280;45801;51.810;19.444;2023-02-23T05:44:38;99275.27;;;1.11;61.17
59939;BME280;45801;51.810;19.444;2023-02-23T05:47:05;99276.15;;;1.13;60.94
59939;BME280;45801;51.810;19.444;2023-02-23T05:49:32;99273.19;;;1.13;61.07
59939;BME280;45801;51.810;19.444;2023-02-23T05:51:59;99277.41;;;1.14;61.17
59939;BME280;45801;51.810;19.444;2023-02-23T05:54:25;99276.52;;;1.16;61.13
59939;BME280;45801;51.810;19.444;2023-02-23T05:56:52;99279.48;;;1.19;61.03
59939;BME280;45801;51.810;19.444;2023-02-23T05:59:18;99279.73;;;1.18;61.15
59939;BME280;45801;51.810;19.444;2023-02-23T06:01:45;99276.63;;;1.20;61.09
59939;BME280;45801;51.810;19.444;2023-02-23T06:04:11;99276.09;;;1.21;61.13
59939;BME280;45801;51.810;19.444;2023-02-23T06:06:39;99276.79;;;1.24;61.06
59939;BME280;45801;51.810;19.444;2023-02-23T06:09:06;99278.42;;;1.22;61.34
59939;BME280;45801;51.810;19.444;2023-02-23T06:11:32;99279.51;;;1.23;61.27
59939;BME280;45801;51.810;19.444;2023-02-23T06:13:59;99280.97;;;1.24;61.26
59939;BME280;45801;51.810;19.444;2023-02-23T06:16:26;99281.33;;;1.25;61.31
59939;BME280;45801;51.810;19.444;2023-02-23T06:18:54;99281.59;;;1.28;60.93
59939;BME280;45801;51.810;19.444;2023-02-23T06:21:20;99281.66;;;1.29;61.20
59939;BME280;45801;51.810;19.444;2023-02-23T06:23:47;99277.85;;;1.33;61.32
59939;BME280;45801;51.810;19.444;2023-02-23T06:26:14;99274.53;;;1.34;61.34
59939;BME280;45801;51.810;19.444;2023-02-23T06:28:40;99276.27;;;1.37;61.29
59939;BME280;45801;51.810;19.444;2023-02-23T06:31:07;99278.05;;;1.39;61.11
59939;BME280;45801;51.810;19.444;2023-02-23T06:33:34;99279.34;;;1.40;60.91
59939;BME280;45801;51.810;19.444;2023-02-23T06:36:00;99278.65;;;1.43;61.06
59939;BME280;45801;51.810;19.444;2023-02-23T06:38:27;99277.51;;;1.46;61.07
59939;BME280;45801;51.810;19.444;2023-02-23T06:40:54;99274.45;;;1.49;61.13
59939;BME280;45801;51.810;19.444;2023-02-23T06:43:22;99273.77;;;1.51;61.13
59939;BME280;45801;51.810;19.444;2023-02-23T06:45:48;99278.69;;;1.54;61.06
59939;BME280;45801;51.810;19.444;2023-02-23T06:48:15;99281.48;;;1.54;60.95
59939;BME280;45801;51.810;19.444;2023-02-23T06:50:42;99285.63;;;1.52;60.93
59939;BME280;45801;51.810;19.444;2023-02-23T06:53:09;99283.13;;;1.51;61.10
59939;BME280;45801;51.810;19.444;2023-02-23T06:55:35;99278.83;;;1.56;61.24
59939;BME280;45801;51.810;19.444;2023-02-23T06:58:02;99273.17;;;1.61;60.78
59939;BME280;45801;51.810;19.444;2023-02-23T07:00:30;99275.81;;;1.66;60.86
59939;BME280;45801;51.810;19.444;2023-02-23T07:02:56;99275.97;;;1.72;60.92
59939;BME280;45801;51.810;19.444;2023-02-23T07:05:25;99275.83;;;1.78;60.74
59939;BME280;45801;51.810;19.444;2023-02-23T07:07:51;99278.18;;;1.81;60.72
59939;BME280;45801;51.810;19.444;2023-02-23T07:10:18;99277.57;;;1.86;60.54
59939;BME280;45801;51.810;19.444;2023-02-23T07:12:45;99275.15;;;1.93;60.60
59939;BME280;45801;51.810;19.444;2023-02-23T07:15:12;99272.91;;;2.00;60.57
59939;BME280;45801;51.810;19.444;2023-02-23T07:17:39;99272.31;;;2.03;60.54
59939;BME280;45801;51.810;19.444;2023-02-23T07:20:06;99270.62;;;2.06;60.67
59939;BME280;45801;51.810;19.444;2023-02-23T07:22:32;99270.86;;;2.09;60.41
59939;BME280;45801;51.810;19.444;2023-02-23T07:25:00;99269.23;;;2.13;60.06
59939;BME280;45801;51.810;19.444;2023-02-23T07:27:27;99270.55;;;2.16;60.13
59939;BME280;45801;51.810;19.444;2023-02-23T07:29:53;99271.23;;;2.23;59.95
59939;BME280;45801;51.810;19.444;2023-02-23T07:32:20;99269.85;;;2.30;59.86
59939;BME280;45801;51.810;19.444;2023-02-23T07:34:46;99269.48;;;2.34;59.49
59939;BME280;45801;51.810;19.444;2023-02-23T07:37:13;99268.20;;;2.35;59.28
59939;BME280;45801;51.810;19.444;2023-02-23T07:39:39;99266.56;;;2.37;59.59
59939;BME280;45801;51.810;19.444;2023-02-23T07:42:06;99267.17;;;2.42;59.60
59939;BME280;45801;51.810;19.444;2023-02-23T07:44:33;99266.27;;;2.49;59.48
59939;BME280;45801;51.810;19.444;2023-02-23T07:46:59;99267.07;;;2.55;59.61
59939;BME280;45801;51.810;19.444;2023-02-23T07:49:26;99261.56;;;2.57;59.40
59939;BME280;45801;51.810;19.444;2023-02-23T07:51:52;99260.73;;;2.60;59.63
59939;BME280;45801;51.810;19.444;2023-02-23T07:54:19;99258.21;;;2.63;59.36
59939;BME280;45801;51.810;19.444;2023-02-23T07:56:47;99253.96;;;2.62;59.43
59939;BME280;45801;51.810;19.444;2023-02-23T07:59:13;99251.15;;;2.61;59.24
59939;BME280;45801;51.810;19.444;2023-02-23T08:01:40;99247.70;;;2.64;59.32
59939;BME280;45801;51.810;19.444;2023-02-23T08:04:07;99246.39;;;2.68;58.79
59939;BME280;45801;51.810;19.444;2023-02-23T08:06:33;99246.52;;;2.64;59.02
59939;BME280;45801;51.810;19.444;2023-02-23T08:09:01;99246.27;;;2.66;59.31
59939;BME280;45801;51.810;19.444;2023-02-23T08:11:28;99243.72;;;2.69;59.23
59939;BME280;45801;51.810;19.444;2023-02-23T08:13:56;99242.36;;;2.76;59.28
59939;BME280;45801;51.810;19.444;2023-02-23T08:16:29;99238.95;;;2.79;59.21
59939;BME280;45801;51.810;19.444;2023-02-23T08:18:57;99239.98;;;2.81;59.29
59939;BME280;45801;51.810;19.444;2023-02-23T08:21:25;99239.17;;;2.87;59.35
59939;BME280;45801;51.810;19.444;2023-02-23T08:23:55;99237.23;;;2.93;59.23
59939;BME280;45801;51.810;19.444;2023-02-23T08:26:22;99233.90;;;2.93;59.04
59939;BME280;45801;51.810;19.444;2023-02-23T08:28:51;99236.14;;;2.95;59.08
59939;BME280;45801;51.810;19.444;2023-02-23T08:31:18;99234.30;;;2.96;59.14
59939;BME280;45801;51.810;19.444;2023-02-23T08:33:47;99233.90;;;3.00;59.31
59939;BME280;45801;51.810;19.444;2023-02-23T08:36:14;99230.27;;;3.02;59.18
59939;BME280;45801;51.810;19.444;2023-02-23T08:38:40;99235.41;;;3.07;58.98
59939;BME280;45801;51.810;19.444;2023-02-23T08:41:07;99234.64;;;3.08;58.65
59939;BME280;45801;51.810;19.444;2023-02-23T08:43:33;99236.45;;;3.11;58.96
59939;BME280;45801;51.810;19.444;2023-02-23T08:46:00;99230.77;;;3.16;58.73
59939;BME280;45801;51.810;19.444;2023-02-23T08:48:26;99230.26;;;3.24;58.83
59939;BME280;45801;51.810;19.444;2023-02-23T08:50:57;99226.31;;;3.29;58.81
59939;BME280;45801;51.810;19.444;2023-02-23T08:53:25;99222.05;;;3.38;58.77
59939;BME280;45801;51.810;19.444;2023-02-23T08:55:59;99218.90;;;3.45;58.74
59939;BME280;45801;51.810;19.444;2023-02-23T08:58:27;99218.02;;;3.49;58.70
59939;BME280;45801;51.810;19.444;2023-02-23T09:00:54;99213.23;;;3.55;58.74
59939;BME280;45801;51.810;19.444;2023-02-23T09:03:20;99211.10;;;3.59;58.69
59939;BME280;45801;51.810;19.444;2023-02-23T09:05:48;99212.33;;;3.67;59.07
59939;BME280;45801;51.810;19.444;2023-02-23T09:08:14;99207.48;;;3.77;58.85
59939;BME280;45801;51.810;19.444;2023-02-23T09:10:42;99207.39;;;3.85;58.72
59939;BME280;45801;51.810;19.444;2023-02-23T09:13:12;99204.27;;;3.93;58.72
59939;BME280;45801;51.810;19.444;2023-02-23T09:15:39;99200.19;;;3.99;58.14
59939;BME280;45801;51.810;19.444;2023-02-23T09:18:08;99199.88;;;4.02;58.18
59939;BME280;45801;51.810;19.444;2023-02-23T09:20:35;99198.42;;;4.04;58.15
59939;BME280;45801;51.810;19.444;2023-02-23T09:23:02;99199.65;;;4.10;58.59
59939;BME280;45801;51.810;19.444;2023-02-23T09:25:29;99195.71;;;4.20;58.69
59939;BME280;45801;51.810;19.444;2023-02-23T09:27:56;99192.73;;;4.22;57.92
59939;BME280;45801;51.810;19.444;2023-02-23T09:30:26;99193.55;;;4.29;57.77
59939;BME280;45801;51.810;19.444;2023-02-23T09:32:53;99194.59;;;4.37;58.13
59939;BME280;45801;51.810;19.444;2023-02-23T09:35:22;99190.63;;;4.43;57.77
59939;BME280;45801;51.810;19.444;2023-02-23T09:37:51;99188.80;;;4.46;57.91
59939;BME280;45801;51.810;19.444;2023-02-23T09:40:23;99184.86;;;4.53;57.90
59939;BME280;45801;51.810;19.444;2023-02-23T09:42:59;99183.92;;;4.57;57.80
59939;BME280;45801;51.810;19.444;2023-02-23T09:45:32;99181.05;;;4.58;57.46
59939;BME280;45801;51.810;19.444;2023-02-23T09:48:12;99178.95;;;4.60;57.48
59939;BME280;45801;51.810;19.444;2023-02-23T09:50:45;99176.17;;;4.66;57.64
59939;BME280;45801;51.810;19.444;2023-02-23T09:55:47;99174.96;;;4.76;57.78
59939;BME280;45801;51.810;19.444;2023-02-23T09:58:22;99170.69;;;4.94;57.94
59939;BME280;45801;51.810;19.444;2023-02-23T10:01:01;99167.59;;;5.21;58.87
59939;BME280;45801;51.810;19.444;2023-02-23T10:03:33;99164.71;;;5.70;59.16
59939;BME280;45801;51.810;19.444;2023-02-23T10:06:05;99159.97;;;6.13;58.74
59939;BME280;45801;51.810;19.444;2023-02-23T10:08:46;99159.88;;;6.43;57.30
59939;BME280;45801;51.810;19.444;2023-02-23T10:11:26;99152.63;;;6.50;56.03
59939;BME280;45801;51.810;19.444;2023-02-23T10:14:21;99144.93;;;6.49;55.04
59939;BME280;45801;51.810;19.444;2023-02-23T10:20:16;99138.95;;;6.39;53.56
59939;BME280;45801;51.810;19.444;2023-02-23T10:22:45;99139.69;;;6.34;54.91
59939;BME280;45801;51.810;19.444;2023-02-23T10:25:24;99136.86;;;6.36;55.34
59939;BME280;45801;51.810;19.444;2023-02-23T10:27:53;99136.18;;;6.36;54.66
59939;BME280;45801;51.810;19.444;2023-02-23T10:30:27;99132.58;;;6.40;55.83
59939;BME280;45801;51.810;19.444;2023-02-23T10:33:20;99130.05;;;6.42;54.17
59939;BME280;45801;51.810;19.444;2023-02-23T10:35:45;99126.67;;;6.41;54.90
59939;BME280;45801;51.810;19.444;2023-02-23T10:38:14;99122.86;;;6.47;55.28
59939;BME280;45801;51.810;19.444;2023-02-23T10:40:44;99121.92;;;6.49;54.17
59939;BME280;45801;51.810;19.444;2023-02-23T10:43:12;99119.08;;;6.51;54.50
59939;BME280;45801;51.810;19.444;2023-02-23T10:45:49;99113.54;;;6.51;54.72
59939;BME280;45801;51.810;19.444;2023-02-23T10:48:21;99110.67;;;6.56;54.65
59939;BME280;45801;51.810;19.444;2023-02-23T10:50:52;99109.66;;;6.66;54.48
59939;BME280;45801;51.810;19.444;2023-02-23T10:53:27;99100.04;;;6.74;54.23
59939;BME280;45801;51.810;19.444;2023-02-23T10:56:06;99094.13;;;6.84;54.01
59939;BME280;45801;51.810;19.444;2023-02-23T10:58:42;99088.63;;;7.01;54.76
59939;BME280;45801;51.810;19.444;2023-02-23T11:01:10;99082.05;;;7.15;54.14
59939;BME280;45801;51.810;19.444;2023-02-23T11:03:45;99074.54;;;7.27;53.89
59939;BME280;45801;51.810;19.444;2023-02-23T11:06:35;99067.20;;;7.37;53.36
59939;BME280;45801;51.810;19.444;2023-02-23T11:09:28;99066.14;;;7.46;52.84
59939;BME280;45801;51.810;19.444;2023-02-23T11:14:26;99053.91;;;7.62;53.39
59939;BME280;45801;51.810;19.444;2023-02-23T11:16:57;99051.23;;;7.71;52.42
59939;BME280;45801;51.810;19.444;2023-02-23T11:19:35;99044.09;;;7.78;52.48
59939;BME280;45801;51.810;19.444;2023-02-23T11:22:04;99042.73;;;7.83;52.10
59939;BME280;45801;51.810;19.444;2023-02-23T11:24:34;99039.02;;;7.84;51.47
59939;BME280;45801;51.810;19.444;2023-02-23T11:27:05;99036.58;;;7.85;51.61
59939;BME280;45801;51.810;19.444;2023-02-23T11:29:35;99032.84;;;7.80;51.76
59939;BME280;45801;51.810;19.444;2023-02-23T11:32:17;99026.36;;;7.72;51.82
59939;BME280;45801;51.810;19.444;2023-02-23T11:34:46;99021.20;;;7.70;51.63
59939;BME280;45801;51.810;19.444;2023-02-23T11:37:21;99018.48;;;7.68;51.96
59939;BME280;45801;51.810;19.444;2023-02-23T11:40:00;99012.30;;;7.63;51.82
59939;BME280;45801;51.810;19.444;2023-02-23T11:42:30;99010.94;;;7.57;51.57
59939;BME280;45801;51.810;19.444;2023-02-23T11:45:06;99011.10;;;7.57;52.45
59939;BME280;45801;51.810;19.444;2023-02-23T11:47:37;99011.86;;;7.54;52.41
59939;BME280;45801;51.810;19.444;2023-02-23T11:50:05;99009.89;;;7.56;52.41
59939;BME280;45801;51.810;19.444;2023-02-23T11:52:33;99006.55;;;7.56;52.41
59939;BME280;45801;51.810;19.444;2023-02-23T11:55:04;98999.95;;;7.56;52.81
59939;BME280;45801;51.810;19.444;2023-02-23T11:57:34;98997.47;;;7.56;52.53
59939;BME280;45801;51.810;19.444;2023-02-23T12:00:09;98995.16;;;7.55;52.78
59939;BME280;45801;51.810;19.444;2023-02-23T12:02:49;98993.02;;;7.54;52.50
59939;BME280;45801;51.810;19.444;2023-02-23T12:05:21;98992.52;;;7.58;52.97
59939;BME280;45801;51.810;19.444;2023-02-23T12:08:05;98990.86;;;7.63;53.18
59939;BME280;45801;51.810;19.444;2023-02-23T12:10:42;98987.06;;;7.67;53.09
59939;BME280;45801;51.810;19.444;2023-02-23T12:16:20;98981.77;;;7.77;52.69
59939;BME280;45801;51.810;19.444;2023-02-23T12:18:56;98980.54;;;7.83;52.91
59939;BME280;45801;51.810;19.444;2023-02-23T12:21:34;98974.23;;;7.93;52.45
59939;BME280;45801;51.810;19.444;2023-02-23T12:26:57;98966.21;;;8.01;51.74
59939;BME280;45801;51.810;19.444;2023-02-23T12:35:38;98952.05;;;7.96;52.05
59939;BME280;45801;51.810;19.444;2023-02-23T12:38:37;98944.77;;;8.01;52.38
59939;BME280;45801;51.810;19.444;2023-02-23T12:41:12;98941.41;;;8.07;52.77
59939;BME280;45801;51.810;19.444;2023-02-23T12:43:54;98939.21;;;8.12;52.37
59939;BME280;45801;51.810;19.444;2023-02-23T12:46:33;98935.11;;;8.17;52.02
59939;BME280;45801;51.810;19.444;2023-02-23T12:49:12;98930.72;;;8.24;52.45
59939;BME280;45801;51.810;19.444;2023-02-23T12:51:56;98927.98;;;8.33;52.53
59939;BME280;45801;51.810;19.444;2023-02-23T12:54:23;98923.60;;;8.40;52.34
59939;BME280;45801;51.810;19.444;2023-02-23T12:57:11;98922.73;;;8.47;52.35
59939;BME280;45801;51.810;19.444;2023-02-23T12:59:55;98920.65;;;8.55;52.17
59939;BME280;45801;51.810;19.444;2023-02-23T13:02:28;98919.40;;;8.62;51.99
59939;BME280;45801;51.810;19.444;2023-02-23T13:11:04;98910.85;;;8.70;51.22
59939;BME280;45801;51.810;19.444;2023-02-23T13:13:48;98910.97;;;8.72;51.91
59939;BME280;45801;51.810;19.444;2023-02-23T13:16:36;98903.52;;;8.73;52.05
59939;BME280;45801;51.810;19.444;2023-02-23T13:19:17;98902.02;;;8.75;51.83
59939;BME280;45801;51.810;19.444;2023-02-23T13:21:51;98901.33;;;8.75;51.74
59939;BME280;45801;51.810;19.444;2023-02-23T13:24:23;98899.45;;;8.80;51.77
59939;BME280;45801;51.810;19.444;2023-02-23T13:27:00;98892.39;;;8.82;51.11
59939;BME280;45801;51.810;19.444;2023-02-23T13:29:33;98890.52;;;8.83;51.35
59939;BME280;45801;51.810;19.444;2023-02-23T13:32:03;98883.07;;;8.85;51.31
59939;BME280;45801;51.810;19.444;2023-02-23T13:37:16;98877.21;;;8.82;51.28
59939;BME280;45801;51.810;19.444;2023-02-23T13:42:44;98872.86;;;8.83;51.07
59939;BME280;45801;51.810;19.444;2023-02-23T13:45:46;98865.77;;;8.80;50.44
59939;BME280;45801;51.810;19.444;2023-02-23T13:48:28;98862.73;;;8.82;51.47
59939;BME280;45801;51.810;19.444;2023-02-23T13:51:15;98859.00;;;8.81;51.27
59939;BME280;45801;51.810;19.444;2023-02-23T13:53:47;98853.24;;;8.81;51.92
59939;BME280;45801;51.810;19.444;2023-02-23T13:56:28;98851.33;;;8.82;51.42
59939;BME280;45801;51.810;19.444;2023-02-23T13:59:00;98850.61;;;8.81;51.67
59939;BME280;45801;51.810;19.444;2023-02-23T14:01:43;98848.35;;;8.77;51.40
59939;BME280;45801;51.810;19.444;2023-02-23T14:04:20;98843.30;;;8.70;51.75
59939;BME280;45801;51.810;19.444;2023-02-23T14:06:53;98842.41;;;8.65;51.79
59939;BME280;45801;51.810;19.444;2023-02-23T14:09:44;98844.20;;;8.62;51.95
59939;BME280;45801;51.810;19.444;2023-02-23T14:12:16;98845.06;;;8.58;52.40
59939;BME280;45801;51.810;19.444;2023-02-23T14:14:48;98840.81;;;8.57;52.38
59939;BME280;45801;51.810;19.444;2023-02-23T14:22:36;98837.58;;;8.47;51.84
59939;BME280;45801;51.810;19.444;2023-02-23T14:28:03;98837.91;;;8.40;52.70
59939;BME280;45801;51.810;19.444;2023-02-23T14:30:46;98838.46;;;8.41;52.77
59939;BME280;45801;51.810;19.444;2023-02-23T14:33:34;98836.14;;;8.39;52.65